Time;durP1;ratioP1;P1;durP2;ratioP2;P2;SDS_P1;SDS_P2;PMS_P1;PMS_P2;Temp;Humidity;BMP_temperature;BMP_pressure;BME280_temperature;BME280_humidity;BME280_pressure;Samples;Min_cycle;Max_cycle;Signal;HPM_P1;HPM_P2
2022/09/08 00:02:22;;;;;;;6.05;3.00;;;18.10;99.90;;;;;;5019285;28;20038;-60
2022/09/08 00:04:47;;;;;;;10.25;3.35;;;18.10;99.90;;;;;;5004325;28;20040;-61
2022/09/08 00:07:13;;;;;;;4.68;3.15;;;18.30;99.90;;;;;;5017705;28;20052;-61
2022/09/08 00:09:38;;;;;;;6.28;3.53;;;18.20;99.90;;;;;;5024707;28;20043;-60
2022/09/08 00:12:04;;;;;;;5.40;3.50;;;18.20;99.90;;;;;;5015078;28;20052;-60
2022/09/08 00:14:32;;;;;;;8.02;3.40;;;18.10;99.90;;;;;;5022146;28;20029;-59
2022/09/08 00:16:58;;;;;;;5.95;3.58;;;18.20;99.90;;;;;;5023728;28;20343;-59
2022/09/08 00:19:26;;;;;;;7.20;3.67;;;18.20;99.90;;;;;;5009481;28;20025;-61
2022/09/08 00:21:52;;;;;;;8.45;3.42;;;18.20;99.90;;;;;;5026365;28;20128;-59
2022/09/08 00:24:17;;;;;;;7.25;3.10;;;18.20;99.90;;;;;;5026632;28;20120;-60
2022/09/08 00:26:43;;;;;;;6.55;3.88;;;18.20;99.90;;;;;;5031513;28;20029;-59
2022/09/08 00:29:08;;;;;;;5.45;3.28;;;18.20;99.90;;;;;;5025750;28;20387;-61
2022/09/08 00:31:41;;;;;;;7.07;3.70;;;18.20;99.90;;;;;;5010414;28;20048;-61
2022/09/08 00:34:07;;;;;;;7.07;3.67;;;18.20;99.90;;;;;;5027816;28;20045;-60
2022/09/08 00:36:33;;;;;;;5.68;3.33;;;18.10;99.90;;;;;;5024265;28;20044;-61
2022/09/08 00:39:00;;;;;;;7.18;3.22;;;18.10;99.90;;;;;;5026404;28;20056;-61
2022/09/08 00:41:27;;;;;;;8.35;3.63;;;18.10;99.90;;;;;;5025053;28;20026;-62
2022/09/08 00:44:00;;;;;;;7.88;3.30;;;18.10;99.90;;;;;;5029552;28;20028;-59
2022/09/08 00:46:32;;;;;;;5.75;3.45;;;18.00;99.90;;;;;;5026253;28;20498;-58
2022/09/08 00:49:11;;;;;;;7.78;3.78;;;18.10;99.90;;;;;;5020609;28;20124;-60
2022/09/08 00:51:41;;;;;;;6.43;3.55;;;18.10;99.90;;;;;;5022025;28;20076;-58
2022/09/08 00:54:09;;;;;;;6.07;3.40;;;18.00;99.90;;;;;;5022999;28;20662;-61
2022/09/08 00:56:35;;;;;;;5.05;3.22;;;18.10;99.90;;;;;;5026227;28;20052;-60
2022/09/08 00:59:02;;;;;;;5.32;3.15;;;18.20;99.90;;;;;;5028006;28;20040;-60
2022/09/08 01:01:30;;;;;;;6.88;3.55;;;18.30;99.90;;;;;;5025578;28;20404;-60
2022/09/08 01:03:56;;;;;;;6.72;3.33;;;18.20;99.90;;;;;;5028989;28;20572;-60
2022/09/08 01:12:45;;;;;;;5.47;3.33;;;18.20;99.90;;;;;;5021299;28;20092;-61
2022/09/08 01:15:31;;;;;;;6.90;3.72;;;18.20;99.90;;;;;;5023693;28;20041;-61
2022/09/08 01:17:57;;;;;;;6.35;3.33;;;18.20;99.90;;;;;;5020684;28;20631;-59
2022/09/08 01:20:47;;;;;;;6.88;3.72;;;18.20;99.90;;;;;;5024408;28;20033;-58
2022/09/08 01:23:30;;;;;;;7.70;3.85;;;18.20;99.90;;;;;;5022840;28;20025;-61
2022/09/08 01:26:27;;;;;;;6.25;3.25;;;18.30;99.90;;;;;;5018450;28;20081;-58
2022/09/08 01:28:59;;;;;;;6.63;3.15;;;18.40;99.90;;;;;;5013126;28;20498;-61
2022/09/08 01:31:25;;;;;;;6.75;4.00;;;18.50;99.90;;;;;;5024701;28;20099;-60
2022/09/08 01:33:51;;;;;;;9.23;3.95;;;18.60;99.90;;;;;;5024981;28;20030;-61
2022/09/08 01:36:18;;;;;;;7.85;3.67;;;19.00;99.90;;;;;;5026302;28;20052;-61
2022/09/08 01:38:44;;;;;;;5.65;3.55;;;19.10;99.90;;;;;;5028696;28;20083;-61
2022/09/08 01:41:10;;;;;;;8.73;3.63;;;18.90;99.90;;;;;;5024879;28;20124;-61
2022/09/08 01:43:36;;;;;;;7.95;4.10;;;18.60;99.90;;;;;;5026706;28;20037;-61
2022/09/08 01:46:02;;;;;;;7.50;3.75;;;18.50;99.90;;;;;;5026597;28;20085;-60
2022/09/08 01:48:28;;;;;;;8.32;3.40;;;18.40;99.90;;;;;;5023684;28;20095;-61
2022/09/08 01:51:05;;;;;;;7.10;3.35;;;18.40;99.90;;;;;;5027018;28;20438;-58
2022/09/08 01:53:31;;;;;;;6.28;3.45;;;18.40;99.90;;;;;;5026686;28;20033;-60
2022/09/08 01:55:57;;;;;;;6.05;3.08;;;18.50;99.90;;;;;;5024667;28;20041;-62
2022/09/08 01:58:22;;;;;;;7.07;3.90;;;18.40;99.90;;;;;;5024507;28;20041;-61
2022/09/08 02:00:48;;;;;;;9.43;3.58;;;18.60;99.90;;;;;;5026183;28;20037;-61
2022/09/08 02:03:14;;;;;;;6.65;3.42;;;18.70;99.90;;;;;;5021447;28;20412;-57
2022/09/08 02:05:41;;;;;;;8.80;4.55;;;18.50;99.90;;;;;;5020263;28;20130;-59
2022/09/08 02:08:08;;;;;;;5.68;4.40;;;18.50;99.90;;;;;;5017254;28;20604;-60
2022/09/08 02:10:34;;;;;;;8.82;4.78;;;18.50;99.90;;;;;;5026143;28;20037;-59
2022/09/08 02:13:00;;;;;;;11.95;4.70;;;18.40;99.90;;;;;;5027797;28;20071;-61
2022/09/08 02:15:27;;;;;;;8.38;5.00;;;18.70;99.90;;;;;;5023870;28;20038;-61
2022/09/08 02:17:53;;;;;;;8.48;4.68;;;18.50;99.90;;;;;;5025037;28;20053;-59
2022/09/08 02:20:21;;;;;;;6.82;4.50;;;18.40;99.90;;;;;;5021028;28;20167;-61
2022/09/08 02:22:46;;;;;;;9.63;4.97;;;18.40;99.90;;;;;;5025761;28;20484;-60
2022/09/08 02:25:12;;;;;;;10.07;4.68;;;18.50;99.90;;;;;;5024753;28;20064;-61
2022/09/08 02:27:37;;;;;;;7.85;4.60;;;18.40;99.90;;;;;;5024360;28;20140;-60
2022/09/08 02:30:03;;;;;;;8.68;4.68;;;18.40;99.90;;;;;;5024692;28;20033;-60
2022/09/08 02:32:29;;;;;;;9.88;4.80;;;18.40;99.90;;;;;;5022838;28;20103;-61
2022/09/08 02:34:55;;;;;;;8.05;5.13;;;18.50;99.90;;;;;;5005710;28;20087;-61
2022/09/08 02:37:20;;;;;;;10.73;4.63;;;18.70;99.90;;;;;;5023361;28;20080;-60
2022/09/08 02:39:47;;;;;;;10.90;5.70;;;18.70;99.90;;;;;;5023718;28;20029;-60
2022/09/08 02:42:12;;;;;;;11.50;5.75;;;18.90;99.90;;;;;;5025599;28;20075;-61
2022/09/08 02:44:38;;;;;;;10.35;5.20;;;18.80;99.90;;;;;;5028548;28;20086;-60
2022/09/08 02:47:04;;;;;;;10.23;5.88;;;18.60;99.90;;;;;;5023181;28;20033;-61
2022/09/08 02:49:31;;;;;;;10.15;5.63;;;18.60;99.90;;;;;;5025561;28;20120;-60
2022/09/08 02:51:57;;;;;;;10.80;5.18;;;18.50;99.90;;;;;;5022140;28;20484;-61
2022/09/08 02:54:23;;;;;;;10.68;5.32;;;18.50;99.90;;;;;;5026653;28;20021;-61
2022/09/08 02:56:49;;;;;;;12.55;5.22;;;18.40;99.90;;;;;;5025192;28;20048;-61
2022/09/08 02:59:15;;;;;;;9.63;5.05;;;18.50;99.90;;;;;;5026076;28;20029;-57
2022/09/08 03:01:43;;;;;;;10.20;5.00;;;18.60;99.90;;;;;;5022078;28;20042;-60
2022/09/08 03:04:09;;;;;;;9.43;5.35;;;18.70;99.90;;;;;;5022372;28;20034;-61
2022/09/08 03:06:35;;;;;;;10.40;5.32;;;18.80;99.90;;;;;;5025327;28;20029;-60
2022/09/08 03:09:01;;;;;;;8.43;4.60;;;18.40;99.90;;;;;;5026346;28;21010;-61
2022/09/08 03:11:27;;;;;;;10.80;5.05;;;18.60;99.90;;;;;;5017079;28;20049;-61
2022/09/08 03:13:53;;;;;;;12.10;5.03;;;18.40;99.90;;;;;;5018327;28;20921;-60
2022/09/08 03:16:18;;;;;;;11.55;5.32;;;18.70;99.90;;;;;;5021326;28;20062;-61
2022/09/08 03:18:45;;;;;;;8.05;4.60;;;18.50;99.90;;;;;;5025215;28;20025;-59
2022/09/08 03:21:12;;;;;;;9.05;5.15;;;18.30;99.90;;;;;;5024461;28;20077;-62
2022/09/08 03:23:38;;;;;;;7.97;4.65;;;18.20;99.90;;;;;;5020643;28;20065;-61
2022/09/08 03:26:06;;;;;;;11.65;5.45;;;18.10;99.90;;;;;;5024494;28;20041;-62
2022/09/08 03:28:33;;;;;;;11.38;5.57;;;18.30;99.90;;;;;;5023489;28;20045;-61
2022/09/08 03:30:58;;;;;;;11.32;5.40;;;18.40;99.90;;;;;;5020999;28;20160;-60
2022/09/08 03:33:24;;;;;;;9.13;5.35;;;18.40;99.90;;;;;;5023294;28;20539;-61
2022/09/08 03:35:49;;;;;;;11.02;5.65;;;18.30;99.90;;;;;;5024486;28;20492;-60
2022/09/08 03:38:19;;;;;;;9.65;4.95;;;18.30;99.90;;;;;;5023736;28;20037;-60
2022/09/08 03:40:45;;;;;;;8.52;4.97;;;18.00;99.90;;;;;;5021736;28;20094;-60
2022/09/08 03:43:10;;;;;;;10.13;5.05;;;18.00;99.90;;;;;;5022639;28;20120;-60
2022/09/08 03:45:44;;;;;;;10.45;5.30;;;18.00;99.90;;;;;;5022361;28;20045;-61
2022/09/08 03:48:10;;;;;;;12.50;5.07;;;18.00;99.90;;;;;;5022691;28;20040;-61
2022/09/08 03:50:36;;;;;;;9.52;4.60;;;17.90;99.90;;;;;;5024927;28;20037;-59
2022/09/08 03:53:01;;;;;;;10.23;5.43;;;18.00;99.90;;;;;;5022285;28;20082;-59
2022/09/08 03:55:27;;;;;;;9.05;5.10;;;18.00;99.90;;;;;;5023773;28;20041;-61
2022/09/08 03:57:52;;;;;;;9.65;5.13;;;18.00;99.90;;;;;;5023515;28;20029;-61
2022/09/08 04:00:18;;;;;;;10.75;5.13;;;18.00;99.90;;;;;;5023949;28;20396;-61
2022/09/08 04:02:44;;;;;;;8.30;5.10;;;18.00;99.90;;;;;;5019996;28;20119;-62
2022/09/08 04:05:10;;;;;;;9.95;5.28;;;17.90;99.90;;;;;;5022187;28;20034;-61
2022/09/08 04:07:38;;;;;;;10.30;5.03;;;18.10;99.90;;;;;;5019621;28;20432;-61
2022/09/08 04:10:05;;;;;;;11.73;5.25;;;18.40;99.90;;;;;;5023829;28;20511;-61
2022/09/08 04:12:31;;;;;;;7.82;4.80;;;18.60;99.90;;;;;;5019450;28;20025;-62
2022/09/08 04:14:56;;;;;;;12.18;5.35;;;18.40;99.90;;;;;;5022023;28;20101;-62
2022/09/08 04:17:22;;;;;;;11.32;5.68;;;18.30;99.90;;;;;;5024149;28;20045;-62
2022/09/08 04:19:50;;;;;;;10.90;6.13;;;18.50;99.90;;;;;;5024341;28;20037;-62
2022/09/08 04:22:18;;;;;;;11.20;6.20;;;18.70;99.90;;;;;;5018511;28;20041;-59
2022/09/08 04:24:44;;;;;;;11.23;5.55;;;18.80;99.90;;;;;;5026806;28;20037;-61
2022/09/08 04:27:10;;;;;;;13.10;6.93;;;18.70;99.90;;;;;;5024681;28;20041;-61
2022/09/08 04:29:36;;;;;;;11.32;6.07;;;18.50;99.90;;;;;;5023634;28;20040;-60
2022/09/08 04:32:02;;;;;;;13.93;6.65;;;18.60;99.90;;;;;;5024703;28;20033;-59
2022/09/08 04:34:28;;;;;;;14.25;6.90;;;18.70;99.90;;;;;;5023734;28;20030;-60
2022/09/08 04:36:53;;;;;;;13.20;7.00;;;18.70;99.90;;;;;;5021765;28;20029;-59
2022/09/08 04:39:20;;;;;;;11.85;7.50;;;18.70;99.90;;;;;;5020767;28;20037;-59
2022/09/08 04:41:46;;;;;;;17.17;7.65;;;18.80;99.90;;;;;;5024580;28;20485;-60
2022/09/08 04:44:12;;;;;;;11.98;7.18;;;18.70;99.90;;;;;;5020892;28;20749;-61
2022/09/08 04:46:37;;;;;;;11.00;7.57;;;18.80;99.90;;;;;;5024291;28;20033;-59
2022/09/08 04:49:04;;;;;;;11.65;7.53;;;18.80;99.90;;;;;;5023377;28;20549;-61
2022/09/08 04:51:31;;;;;;;16.13;8.60;;;18.80;99.90;;;;;;5020039;28;21892;-60
2022/09/08 04:53:58;;;;;;;13.27;8.50;;;18.80;99.90;;;;;;5023393;28;20095;-60
2022/09/08 04:56:25;;;;;;;18.02;8.88;;;18.90;99.90;;;;;;5022391;28;20044;-61
2022/09/08 04:58:52;;;;;;;16.52;8.68;;;18.80;99.90;;;;;;5020904;28;20037;-60
2022/09/08 05:01:36;;;;;;;14.55;8.40;;;18.70;99.90;;;;;;5019014;28;20049;-60
2022/09/08 05:04:02;;;;;;;12.55;8.48;;;18.60;99.90;;;;;;5020691;28;20037;-58
2022/09/08 05:06:31;;;;;;;15.82;8.27;;;18.70;99.90;;;;;;5025933;28;20041;-59
2022/09/08 05:08:58;;;;;;;11.10;7.43;;;18.70;99.90;;;;;;5015210;28;20034;-60
2022/09/08 05:11:26;;;;;;;13.27;7.75;;;18.70;99.90;;;;;;5027991;28;20117;-60
2022/09/08 05:13:53;;;;;;;13.77;8.00;;;18.70;99.90;;;;;;5024194;28;20033;-61
2022/09/08 05:16:24;;;;;;;16.63;7.75;;;18.50;99.90;;;;;;5023748;28;20053;-60
2022/09/08 05:18:56;;;;;;;11.80;6.68;;;18.50;99.90;;;;;;5022690;28;20037;-58
2022/09/08 05:21:21;;;;;;;16.42;6.20;;;18.50;99.90;;;;;;5022014;28;20120;-60
2022/09/08 05:23:52;;;;;;;9.98;5.30;;;18.60;99.90;;;;;;5025765;28;20141;-60
2022/09/08 05:26:19;;;;;;;12.70;5.68;;;18.60;99.90;;;;;;5023680;28;20441;-59
2022/09/08 05:28:45;;;;;;;13.68;6.28;;;18.50;99.90;;;;;;5030805;28;20117;-58
2022/09/08 05:31:19;;;;;;;13.30;6.43;;;18.40;99.90;;;;;;5025029;28;20595;-60
2022/09/08 05:33:45;;;;;;;12.93;6.57;;;18.20;99.90;;;;;;5025330;28;20033;-60
2022/09/08 05:36:19;;;;;;;11.50;5.88;;;18.00;99.90;;;;;;5024419;28;20034;-58
2022/09/08 05:38:46;;;;;;;14.13;6.03;;;18.10;99.90;;;;;;5029088;28;20052;-60
2022/09/08 05:41:12;;;;;;;12.02;5.45;;;18.00;99.90;;;;;;5024416;28;20671;-59
2022/09/08 05:43:39;;;;;;;11.15;5.28;;;18.10;99.90;;;;;;5029967;28;20225;-59
2022/09/08 05:46:04;;;;;;;13.88;4.80;;;18.10;99.90;;;;;;5025804;28;20041;-60
2022/09/08 05:48:30;;;;;;;10.07;4.47;;;18.20;99.90;;;;;;5026489;28;20072;-59
2022/09/08 05:50:56;;;;;;;12.18;4.45;;;18.10;99.90;;;;;;5026628;28;20033;-60
2022/09/08 05:53:22;;;;;;;9.80;4.50;;;18.20;99.90;;;;;;5021613;28;20096;-57
2022/09/08 05:55:59;;;;;;;11.63;4.45;;;18.20;99.90;;;;;;5025044;28;20431;-59
2022/09/08 05:58:26;;;;;;;9.65;4.10;;;18.10;99.90;;;;;;5026781;28;20038;-61
2022/09/08 06:01:00;;;;;;;8.68;4.00;;;18.10;99.90;;;;;;5026938;28;20052;-59
2022/09/08 06:03:27;;;;;;;11.60;4.22;;;18.20;99.90;;;;;;5024778;28;20156;-57
2022/09/08 06:05:54;;;;;;;10.38;4.18;;;18.20;99.90;;;;;;5020140;28;20045;-57
2022/09/08 06:08:21;;;;;;;11.80;4.38;;;18.20;99.90;;;;;;5021044;28;20308;-58
2022/09/08 06:10:53;;;;;;;10.82;4.28;;;18.30;99.90;;;;;;5010935;28;20040;-59
2022/09/08 06:13:23;;;;;;;10.50;4.13;;;18.30;99.90;;;;;;5023583;28;20033;-58
2022/09/08 06:15:49;;;;;;;10.05;3.92;;;18.40;99.90;;;;;;5026611;28;20036;-58
2022/09/08 06:18:16;;;;;;;8.60;4.00;;;18.40;99.90;;;;;;5026572;28;20068;-58
2022/09/08 06:20:43;;;;;;;7.38;3.83;;;18.40;99.90;;;;;;5026450;28;20891;-58
2022/09/08 06:23:08;;;;;;;7.43;4.10;;;18.30;99.90;;;;;;5025091;28;20132;-59
2022/09/08 06:25:45;;;;;;;10.52;3.88;;;18.10;99.90;;;;;;5028168;28;20602;-59
2022/09/08 06:28:27;;;;;;;14.32;5.90;;;18.10;99.90;;;;;;5024973;28;20041;-59
2022/09/08 06:30:54;;;;;;;11.13;4.63;;;18.10;99.90;;;;;;5019403;28;20060;-58
2022/09/08 06:33:33;;;;;;;9.38;4.45;;;17.80;99.90;;;;;;5024738;28;20080;-57
2022/09/08 06:36:10;;;;;;;8.13;3.85;;;17.60;99.90;;;;;;5010720;28;20045;-59
2022/09/08 06:39:03;;;;;;;6.90;4.35;;;17.40;99.90;;;;;;5023222;28;20842;-58
2022/09/08 06:41:32;;;;;;;11.00;5.05;;;17.30;99.90;;;;;;5024758;28;20120;-59
2022/09/08 06:44:12;;;;;;;13.80;5.18;;;17.30;99.90;;;;;;5004369;28;20038;-59
2022/09/08 06:46:39;;;;;;;11.13;5.43;;;17.60;99.90;;;;;;5021813;28;20041;-58
2022/09/08 06:49:09;;;;;;;19.48;6.43;;;17.80;99.90;;;;;;5022019;28;20121;-59
2022/09/08 06:51:42;;;;;;;12.63;6.13;;;18.10;99.90;;;;;;5022001;28;20041;-59
2022/09/08 06:54:39;;;;;;;10.77;6.32;;;18.20;99.90;;;;;;5021216;28;20060;-58
2022/09/08 06:57:23;;;;;;;12.68;6.60;;;18.20;99.90;;;;;;5015100;28;20037;-57
2022/09/08 07:00:08;;;;;;;13.77;7.53;;;18.20;99.90;;;;;;5019395;28;20129;-59
2022/09/08 07:03:04;;;;;;;12.98;7.05;;;18.10;99.90;;;;;;5020879;28;20523;-57
2022/09/08 07:05:41;;;;;;;12.23;6.13;;;18.30;99.90;;;;;;5015085;28;20045;-58
2022/09/08 07:08:16;;;;;;;12.35;7.15;;;18.20;99.90;;;;;;5026363;28;20080;-58
2022/09/08 07:10:50;;;;;;;12.40;6.93;;;18.20;99.90;;;;;;5023974;28;20033;-58
2022/09/08 07:13:51;;;;;;;14.07;6.65;;;18.20;99.90;;;;;;5020721;28;20509;-58
2022/09/08 07:16:36;;;;;;;13.52;7.15;;;18.10;99.90;;;;;;5018647;28;20037;-58
2022/09/08 07:19:20;;;;;;;10.57;6.68;;;18.20;99.90;;;;;;5016453;28;20125;-56
2022/09/08 07:21:55;;;;;;;12.18;6.88;;;18.20;99.90;;;;;;5018795;28;20489;-59
2022/09/08 07:24:27;;;;;;;12.75;6.90;;;18.20;99.90;;;;;;5017908;28;21093;-58
2022/09/08 07:26:58;;;;;;;11.27;6.60;;;18.20;99.90;;;;;;5016946;28;20074;-59
2022/09/08 07:29:40;;;;;;;10.82;6.43;;;18.00;99.90;;;;;;5015449;28;20145;-59
2022/09/08 07:32:16;;;;;;;10.90;6.50;;;18.10;99.90;;;;;;5019955;28;20038;-58
2022/09/08 07:34:56;;;;;;;10.05;7.18;;;18.10;99.90;;;;;;5024037;28;20063;-58
2022/09/08 07:37:32;;;;;;;13.63;7.88;;;18.20;99.90;;;;;;5019926;28;20458;-57
2022/09/08 07:40:42;;;;;;;13.32;7.45;;;18.20;99.90;;;;;;5024706;28;20025;-58
2022/09/08 07:43:12;;;;;;;12.57;7.55;;;18.10;99.90;;;;;;5002704;28;20040;-57
2022/09/08 07:46:37;;;;;;;15.43;7.95;;;18.10;99.90;;;;;;5019386;28;20041;-59
2022/09/08 07:49:15;;;;;;;13.80;8.18;;;18.20;99.90;;;;;;4932944;28;20043;-59
2022/09/08 07:52:18;;;;;;;12.13;8.80;;;18.20;99.90;;;;;;5019119;28;20480;-59
2022/09/08 07:55:05;;;;;;;14.15;9.32;;;18.20;99.90;;;;;;4998134;28;20061;-59
2022/09/08 07:57:54;;;;;;;15.82;9.18;;;18.30;99.90;;;;;;5024291;28;20045;-59
2022/09/08 08:00:35;;;;;;;23.33;15.38;;;18.30;99.90;;;;;;5021751;28;20037;-59
2022/09/08 08:03:16;;;;;;;12.90;8.50;;;18.30;99.90;;;;;;5024336;28;20064;-58
2022/09/08 08:05:50;;;;;;;13.10;8.55;;;18.30;99.90;;;;;;5016146;28;20061;-59
2022/09/08 08:08:32;;;;;;;10.95;8.02;;;18.40;99.90;;;;;;5021700;28;20095;-58
2022/09/08 08:11:33;;;;;;;13.13;7.03;;;18.40;99.90;;;;;;5028290;28;20040;-59
2022/09/08 08:14:05;;;;;;;9.80;5.80;;;18.30;99.90;;;;;;5005272;28;20069;-57
2022/09/08 08:17:09;;;;;;;10.50;5.32;;;18.40;99.90;;;;;;5022110;28;20503;-59
2022/09/08 08:20:02;;;;;;;8.30;5.53;;;18.50;99.90;;;;;;5018605;28;20041;-59
2022/09/08 08:22:56;;;;;;;9.23;5.43;;;18.50;99.90;;;;;;5025916;28;20516;-59
2022/09/08 08:25:34;;;;;;;10.82;6.60;;;18.60;99.90;;;;;;5020742;28;20072;-58
2022/09/08 08:28:19;;;;;;;13.20;6.13;;;18.80;99.90;;;;;;5023483;28;20045;-59
2022/09/08 08:31:00;;;;;;;7.05;5.03;;;18.90;99.90;;;;;;5026786;28;20030;-59
2022/09/08 08:33:32;;;;;;;9.70;4.95;;;19.00;99.90;;;;;;5020071;28;20030;-59
2022/09/08 08:36:05;;;;;;;10.45;4.90;;;19.00;99.90;;;;;;5023585;28;20064;-58
2022/09/08 08:38:41;;;;;;;8.73;5.22;;;19.00;99.90;;;;;;5027883;28;20060;-60
2022/09/08 08:41:30;;;;;;;10.13;4.90;;;18.90;99.90;;;;;;5030504;28;20091;-59
2022/09/08 08:44:01;;;;;;;9.00;5.30;;;18.90;99.90;;;;;;5025073;28;20511;-58
2022/09/08 08:46:59;;;;;;;7.90;4.70;;;18.90;99.90;;;;;;5021215;28;20042;-60
2022/09/08 08:49:50;;;;;;;9.75;5.20;;;18.80;99.90;;;;;;5017226;28;20033;-59
2022/09/08 08:52:38;;;;;;;7.55;5.13;;;18.90;99.90;;;;;;5017453;28;20512;-59
2022/09/08 08:55:20;;;;;;;9.73;4.95;;;18.90;99.90;;;;;;5028963;28;20117;-59
2022/09/08 08:58:07;;;;;;;9.43;6.00;;;19.10;99.90;;;;;;5029138;28;20032;-59
2022/09/08 09:00:43;;;;;;;8.73;5.65;;;19.20;99.90;;;;;;5027537;28;20029;-59
2022/09/08 09:03:27;;;;;;;10.88;5.70;;;19.20;99.90;;;;;;5007402;28;20124;-60
2022/09/08 09:06:14;;;;;;;12.77;6.13;;;19.20;99.90;;;;;;5020711;28;20037;-57
2022/09/08 09:09:12;;;;;;;10.18;6.63;;;19.30;99.90;;;;;;5015335;28;20148;-58
2022/09/08 09:11:48;;;;;;;8.35;5.25;;;19.10;99.90;;;;;;5029115;28;20034;-60
2022/09/08 09:14:50;;;;;;;10.43;5.97;;;18.80;99.90;;;;;;5026179;28;20037;-59
2022/09/08 09:17:53;;;;;;;6.65;4.95;;;19.00;99.90;;;;;;5025483;28;20132;-60
2022/09/08 09:20:35;;;;;;;7.30;4.50;;;19.00;99.90;;;;;;5022342;28;20435;-59
2022/09/08 09:23:23;;;;;;;7.38;3.67;;;19.10;99.90;;;;;;5016563;28;20071;-59
2022/09/08 09:25:58;;;;;;;7.78;3.30;;;19.20;99.90;;;;;;5020228;28;20041;-60
2022/09/08 09:28:23;;;;;;;7.22;2.78;;;19.30;99.90;;;;;;5010174;28;20520;-59
2022/09/08 09:31:13;;;;;;;9.02;3.67;;;19.40;99.90;;;;;;5032694;28;20029;-58
2022/09/08 09:33:53;;;;;;;4.90;2.67;;;19.60;99.90;;;;;;5027675;28;20049;-59
2022/09/08 09:36:37;;;;;;;6.82;2.55;;;19.70;99.90;;;;;;5025312;28;20037;-57
2022/09/08 09:39:33;;;;;;;6.03;2.45;;;19.90;99.90;;;;;;5029732;28;20037;-61
2022/09/08 09:42:17;;;;;;;5.57;1.90;;;20.20;99.90;;;;;;5026148;28;20572;-59
2022/09/08 09:44:53;;;;;;;6.53;2.53;;;20.10;99.90;;;;;;5006955;28;20404;-58
2022/09/08 09:47:55;;;;;;;3.80;1.73;;;20.00;99.90;;;;;;5017704;28;20036;-60
2022/09/08 09:50:21;;;;;;;5.65;2.47;;;20.00;99.90;;;;;;5018908;28;20049;-59
2022/09/08 09:53:09;;;;;;;7.25;2.33;;;20.00;99.90;;;;;;5023637;28;20026;-59
2022/09/08 09:55:59;;;;;;;7.13;2.20;;;20.00;99.90;;;;;;5021614;28;20459;-60
2022/09/08 09:58:30;;;;;;;6.03;1.95;;;19.90;99.90;;;;;;5028632;28;20040;-58
2022/09/08 10:01:34;;;;;;;4.22;1.70;;;19.90;99.90;;;;;;5025937;28;20033;-60
2022/09/08 10:04:08;;;;;;;8.80;2.10;;;19.90;99.90;;;;;;5028681;28;20075;-61
2022/09/08 10:06:42;;;;;;;6.63;2.50;;;19.90;99.90;;;;;;5022602;28;20163;-59
2022/09/08 10:09:41;;;;;;;6.60;1.92;;;19.90;99.90;;;;;;5026469;28;20099;-60
2022/09/08 10:12:31;;;;;;;5.15;1.77;;;19.70;99.90;;;;;;5024216;28;20783;-60
2022/09/08 10:14:59;;;;;;;6.18;1.83;;;19.50;99.90;;;;;;5026412;28;20503;-58
2022/09/08 10:17:28;;;;;;;4.35;2.00;;;19.60;99.90;;;;;;5023720;28;20072;-60
2022/09/08 10:20:11;;;;;;;7.35;2.28;;;19.60;99.90;;;;;;5004966;28;20175;-60
2022/09/08 10:23:06;;;;;;;4.85;1.90;;;19.70;99.90;;;;;;5022668;28;20045;-60
2022/09/08 10:26:02;;;;;;;5.95;1.52;;;19.70;99.90;;;;;;5026634;28;20065;-59
2022/09/08 10:28:37;;;;;;;4.15;1.27;;;19.70;99.90;;;;;;5025402;28;20520;-59
2022/09/08 10:31:20;;;;;;;3.25;1.27;;;19.80;99.90;;;;;;5024071;28;20034;-60
2022/09/08 10:34:12;;;;;;;3.30;1.00;;;19.90;99.90;;;;;;5021172;28;20042;-60
2022/09/08 10:36:52;;;;;;;3.50;0.98;;;20.10;99.90;;;;;;5020258;28;20187;-59
2022/09/08 10:39:41;;;;;;;28.00;18.13;;;20.10;99.90;;;;;;5024559;28;20392;-60
2022/09/08 10:42:35;;;;;;;7.60;1.20;;;20.20;99.90;;;;;;5025420;28;20044;-59
2022/09/08 10:45:33;;;;;;;2.80;1.20;;;20.20;99.90;;;;;;5004406;28;20061;-59
2022/09/08 10:48:17;;;;;;;2.78;0.95;;;20.20;99.90;;;;;;4981474;28;20064;-60
2022/09/08 10:51:11;;;;;;;5.85;1.25;;;20.20;99.90;;;;;;5025896;28;20701;-60
2022/09/08 10:53:52;;;;;;;3.50;0.98;;;20.20;99.90;;;;;;5024591;28;20415;-60
2022/09/08 10:56:27;;;;;;;3.70;1.17;;;20.20;99.90;;;;;;5024358;28;20037;-59
2022/09/08 10:59:11;;;;;;;4.55;0.90;;;20.30;99.90;;;;;;5021741;28;20029;-61
2022/09/08 11:01:37;;;;;;;4.00;1.15;;;20.20;99.90;;;;;;5000832;28;20045;-59
2022/09/08 11:04:21;;;;;;;2.58;0.90;;;20.20;99.90;;;;;;5023272;28;20100;-61
2022/09/08 11:07:22;;;;;;;4.50;1.00;;;20.20;99.90;;;;;;5015909;28;20053;-60
2022/09/08 11:10:06;;;;;;;4.68;1.20;;;20.10;99.90;;;;;;5020537;28;20061;-58
2022/09/08 11:12:59;;;;;;;2.88;1.00;;;20.10;99.90;;;;;;5023476;28;20121;-60
2022/09/08 11:15:47;;;;;;;3.05;0.90;;;20.10;99.90;;;;;;5028795;28;20116;-60
2022/09/08 11:18:16;;;;;;;1.58;0.73;;;20.10;99.90;;;;;;4993927;28;20048;-60
2022/09/08 11:20:53;;;;;;;3.28;0.70;;;20.00;99.90;;;;;;5020934;28;20041;-60
2022/09/08 11:23:37;;;;;;;2.70;0.90;;;20.10;99.90;;;;;;5021471;28;20087;-59
2022/09/08 11:26:35;;;;;;;3.40;0.80;;;20.10;99.90;;;;;;5023441;28;20096;-60
2022/09/08 11:29:11;;;;;;;2.63;0.60;;;20.10;99.90;;;;;;5024492;28;20059;-60
2022/09/08 11:31:46;;;;;;;5.68;1.10;;;20.20;99.90;;;;;;5006593;28;20033;-61
2022/09/08 11:34:31;;;;;;;5.60;1.15;;;20.40;99.90;;;;;;5019574;28;20041;-61
2022/09/08 11:37:29;;;;;;;5.90;1.17;;;20.60;99.90;;;;;;5021101;28;20052;-61
2022/09/08 11:40:13;;;;;;;5.07;1.17;;;20.60;99.90;;;;;;5020812;28;20037;-60
2022/09/08 11:42:59;;;;;;;4.97;1.10;;;20.70;99.90;;;;;;5023119;28;20583;-59
2022/09/08 11:45:45;;;;;;;3.72;1.08;;;20.70;99.90;;;;;;5015492;28;20056;-58
2022/09/08 11:48:29;;;;;;;7.25;1.50;;;20.60;99.90;;;;;;5013161;28;20037;-59
2022/09/08 11:51:10;;;;;;;3.47;1.17;;;20.60;99.90;;;;;;5018649;28;20045;-61
2022/09/08 11:53:54;;;;;;;1.10;0.70;;;20.80;99.90;;;;;;5021474;28;20046;-60
2022/09/08 11:56:49;;;;;;;4.78;1.10;;;21.00;99.90;;;;;;5021331;28;20419;-58
2022/09/08 11:59:34;;;;;;;2.53;0.85;;;21.20;99.90;;;;;;5024464;28;20922;-60
2022/09/08 12:02:08;;;;;;;5.40;1.20;;;21.30;99.90;;;;;;5020568;28;20034;-61
2022/09/08 12:04:46;;;;;;;3.95;1.08;;;21.30;99.90;;;;;;5023067;28;20041;-61
2022/09/08 12:07:47;;;;;;;4.95;0.70;;;21.30;99.90;;;;;;5025257;28;20044;-61
2022/09/08 12:10:40;;;;;;;4.03;0.90;;;21.20;99.90;;;;;;5016885;28;20707;-61
2022/09/08 12:13:30;;;;;;;1.83;0.73;;;21.00;99.90;;;;;;5021724;28;20045;-60
2022/09/08 12:16:10;;;;;;;7.70;1.30;;;20.70;99.90;;;;;;5025572;28;20045;-60
2022/09/08 12:18:54;;;;;;;2.30;0.70;;;20.70;99.90;;;;;;5023115;28;20120;-61
2022/09/08 12:21:29;;;;;;;;;;;20.80;99.90;;;;;;5021503;28;20048;-60
2022/09/08 12:24:26;;;;;;;2.95;1.20;;;20.80;99.90;;;;;;5022344;28;19913;-60
2022/09/08 12:27:10;;;;;;;5.95;1.20;;;20.90;99.90;;;;;;4983399;28;20076;-60
2022/09/08 12:29:56;;;;;;;;;;;21.00;99.90;;;;;;5028912;28;20030;-60
2022/09/08 12:32:31;;;;;;;7.35;0.88;;;21.00;99.90;;;;;;5023764;28;19927;-60
2022/09/08 12:35:17;;;;;;;2.70;1.00;;;21.20;99.90;;;;;;5019125;28;20114;-60
2022/09/08 12:38:08;;;;;;;4.40;1.20;;;21.20;99.90;;;;;;5018052;28;20038;-60
2022/09/08 12:41:02;;;;;;;5.47;1.17;;;21.20;99.90;;;;;;5026897;28;20615;-61
2022/09/08 12:43:40;;;;;;;2.95;1.00;;;21.20;99.90;;;;;;5017144;28;20396;-59
2022/09/08 12:46:44;;;;;;;4.38;1.10;;;21.20;99.90;;;;;;5019583;28;20094;-58
2022/09/08 12:49:20;;;;;;;3.40;1.08;;;21.30;99.90;;;;;;4950666;28;20121;-61
2022/09/08 12:51:52;;;;;;;3.63;0.95;;;21.50;99.90;;;;;;4950867;28;21353;-60
2022/09/08 12:54:33;;;;;;;3.13;1.10;;;21.50;99.90;;;;;;4991925;28;20042;-60
2022/09/08 12:57:14;;;;;;;3.00;0.70;;;21.50;99.90;;;;;;5021403;28;20485;-60
2022/09/08 13:00:13;;;;;;;4.97;1.00;;;21.40;99.90;;;;;;5017700;28;20128;-59
2022/09/08 13:03:02;;;;;;;5.25;1.02;;;21.40;99.90;;;;;;5019114;28;20524;-58
2022/09/08 13:05:30;;;;;;;2.90;0.93;;;21.50;99.90;;;;;;5010054;28;20037;-59
2022/09/08 13:08:13;;;;;;;3.38;0.95;;;21.60;99.90;;;;;;5025884;28;20056;-61
2022/09/08 13:10:45;;;;;;;4.32;1.08;;;21.50;99.90;;;;;;5021303;28;20231;-60
2022/09/08 13:13:37;;;;;;;3.67;1.13;;;21.50;99.90;;;;;;5024213;28;20128;-60
2022/09/08 13:16:54;;;;;;;8.40;1.27;;;21.40;99.90;;;;;;5015867;28;20488;-60
2022/09/08 13:19:27;;;;;;;3.70;0.90;;;21.40;99.90;;;;;;4913803;29;20499;-60
2022/09/08 13:22:31;;;;;;;2.75;0.93;;;21.50;99.90;;;;;;4925084;29;20055;-61
2022/09/08 13:25:07;;;;;;;2.53;1.10;;;21.60;99.90;;;;;;5005223;28;20654;-60
2022/09/08 13:27:56;;;;;;;3.92;1.10;;;21.70;99.90;;;;;;5021140;28;20033;-60
2022/09/08 13:30:48;;;;;;;2.75;1.00;;;21.70;99.90;;;;;;5023090;28;20393;-61
2022/09/08 13:33:22;;;;;;;3.15;0.80;;;21.60;99.90;;;;;;4978865;28;20119;-61
2022/09/08 13:36:04;;;;;;;1.85;0.70;;;21.70;99.90;;;;;;5028454;28;20445;-61